マレ の空港の天気 - METARとTAF

マレ国際空港 ( VRMM / MLE ) - モルディブ Hulhule Island, North Male Atoll
飛行場実況気象(Metar)
観測時間05/28 15:00 MVT (05/28 10:00 UTC)
風向・風速西南西 6m/s
視程10km以上
天気現象
少しの雲 雲底高度 550m
少しの雲 雲底高度 580m
全天の8割程度の雲 雲底高度 8230m
気温30℃
湿度79%
気圧1009hPa
METARVRMM 281000Z 25011KT 9999 FEW018 FEW019CB BKN270 30/26 Q1009 CB N,NW TEMPO 5000 SHRA
過去の天気等 Google飛行場航空写真 Wunderground天気予報

過去48時間のMETAR

飛行場予報(TAF)
発表時間: 5/28 10:00 MVT (5/28 05:00 UTC)
予報対象時間: 28日11時 MVT ~ 29日17時 MVT
風向・風速南南西 7m/s
視程10km以上
少しの塔状積雲 雲底高度 550m
全天の8割程度の雲 雲底高度 3660m
28日14時 MVT ~ 28日20時 MVT に一時的に
視程5000m
天気現象しゅう雨
少しの積乱雲 雲底高度 550m
TAF VRMM 280500Z 2806/2912 21013KT 9999 FEW018TCU BKN120
TEMPO 2809/2815 5000 SHRA FEW018CB